createdAt,value
2019-05-09T00:00:23.296Z,99994.11
2019-05-09T00:02:58.053Z,99990.38
2019-05-09T00:05:29.889Z,99995.23
2019-05-09T00:08:03.463Z,99988.91
2019-05-09T00:10:41.331Z,99989.19
2019-05-09T00:13:08.978Z,99988.42
2019-05-09T00:15:43.730Z,99978.70
2019-05-09T00:18:15.812Z,99977.75
2019-05-09T00:20:59.526Z,99971.04
2019-05-09T00:23:33.198Z,99965.06
2019-05-09T00:26:04.995Z,99962.55
2019-05-09T00:28:38.712Z,99964.97
2019-05-09T00:31:17.327Z,99958.80
2019-05-09T00:33:54.873Z,99955.06
2019-05-09T00:36:26.661Z,99950.75
2019-05-09T00:38:58.696Z,99945.13
2019-05-09T00:41:30.469Z,99944.39
2019-05-09T00:44:08.727Z,99942.51
2019-05-09T00:46:58.978Z,99941.77
2019-05-09T00:49:31.023Z,99936.92
2019-05-09T00:52:03.520Z,99930.41
2019-05-09T00:54:36.077Z,99929.98
2019-05-09T00:57:07.842Z,99924.17
2019-05-09T00:59:39.798Z,99922.55
2019-05-09T01:02:13.162Z,99921.33
2019-05-09T01:04:45.355Z,99920.27
2019-05-09T01:07:17.185Z,99921.48
2019-05-09T01:09:48.997Z,99921.88
2019-05-09T01:12:20.790Z,99912.83
2019-05-09T01:14:53.910Z,99911.08
2019-05-09T01:17:26.237Z,99912.64
2019-05-09T01:19:58.954Z,99910.41
2019-05-09T01:22:32.987Z,99900.13
2019-05-09T01:25:04.573Z,99899.45
2019-05-09T01:27:36.438Z,99902.10
2019-05-09T01:30:08.771Z,99895.91
2019-05-09T01:32:54.031Z,99893.70
2019-05-09T01:35:26.139Z,99888.63
2019-05-09T01:37:57.859Z,99892.27
2019-05-09T01:40:29.955Z,99886.67
2019-05-09T01:43:01.704Z,99876.11
2019-05-09T01:45:35.011Z,99881.47
2019-05-09T01:48:07.016Z,99877.16
2019-05-09T01:50:38.842Z,99877.16
2019-05-09T01:53:13.383Z,99877.83
2019-05-09T01:56:03.443Z,99870.92
2019-05-09T01:58:35.208Z,99873.92
2019-05-09T02:01:09.142Z,99863.55
2019-05-09T02:03:41.178Z,99861.31
2019-05-09T02:06:14.144Z,99856.27
2019-05-09T02:08:45.873Z,99849.08
2019-05-09T02:11:17.651Z,99842.19
2019-05-09T02:13:49.374Z,99846.30
2019-05-09T02:16:35.951Z,99837.71
2019-05-09T02:19:29.579Z,99835.19
2019-05-09T02:22:03.577Z,99836.59
2019-05-09T02:24:35.193Z,99837.25
2019-05-09T02:27:07.154Z,99838.46
2019-05-09T02:29:38.947Z,99830.33
2019-05-09T02:32:10.751Z,99836.97
2019-05-09T02:34:44.248Z,99821.94
2019-05-09T02:37:18.717Z,99824.27
2019-05-09T02:39:50.721Z,99821.67
2019-05-09T02:42:22.537Z,99811.92
2019-05-09T02:44:54.294Z,99811.66
2019-05-09T02:47:28.972Z,99807.83
2019-05-09T02:50:00.087Z,99805.98
2019-05-09T02:52:32.120Z,99800.84
2019-05-09T02:55:03.865Z,99802.59
2019-05-09T02:57:37.520Z,99807.27
2019-05-09T03:00:31.930Z,99799.70
2019-05-09T03:03:19.801Z,99788.66
2019-05-09T03:05:52.042Z,99785.98
2019-05-09T03:08:24.033Z,99789.42
2019-05-09T03:10:58.842Z,99783.08
2019-05-09T03:13:29.921Z,99781.48
2019-05-09T03:16:08.930Z,99777.56
2019-05-09T03:18:41.009Z,99781.61
2019-05-09T03:21:23.360Z,99780.98
2019-05-09T03:23:55.483Z,99778.84
2019-05-09T03:26:31.288Z,99781.23
2019-05-09T03:29:19.385Z,99777.95
2019-05-09T03:31:51.938Z,99779.02
2019-05-09T03:34:23.819Z,99778.00
2019-05-09T03:36:57.961Z,99771.52
2019-05-09T03:39:29.179Z,99773.44
2019-05-09T03:42:00.882Z,99777.42
2019-05-09T03:44:32.815Z,99775.59
2019-05-09T03:47:23.432Z,99784.18
2019-05-09T03:50:13.792Z,99774.63
2019-05-09T03:52:47.792Z,99772.09
2019-05-09T03:55:25.392Z,99769.66
2019-05-09T03:58:07.471Z,99772.66
2019-05-09T04:00:39.487Z,99766.46
2019-05-09T04:03:11.241Z,99769.70
2019-05-09T04:05:55.562Z,99763.91
2019-05-09T04:08:18.224Z,99767.09
2019-05-09T04:10:52.752Z,99766.16
2019-05-09T04:13:29.156Z,99762.70
2019-05-09T04:16:01.080Z,99754.52
2019-05-09T04:18:32.855Z,99759.91
2019-05-09T04:21:04.878Z,99757.76
2019-05-09T04:23:37.895Z,99760.31
2019-05-09T04:26:27.692Z,99749.84
2019-05-09T04:28:59.625Z,99752.80
2019-05-09T04:31:31.479Z,99738.19
2019-05-09T04:34:03.277Z,99737.77
2019-05-09T04:36:40.972Z,99731.17
2019-05-09T04:39:20.835Z,99733.83
2019-05-09T04:41:48.873Z,99727.92
2019-05-09T04:44:38.399Z,99727.70
2019-05-09T04:47:10.234Z,99719.63
2019-05-09T04:49:45.206Z,99720.23
2019-05-09T04:52:17.813Z,99702.97
2019-05-09T04:54:49.308Z,99707.50
2019-05-09T04:57:21.343Z,99703.45
2019-05-09T04:59:53.132Z,99704.57
2019-05-09T05:02:49.854Z,99705.40
2019-05-09T05:05:21.744Z,99694.06
2019-05-09T05:07:57.352Z,99699.34
2019-05-09T05:10:29.503Z,99701.95
2019-05-09T05:13:01.698Z,99706.63
2019-05-09T05:15:33.493Z,99704.59
2019-05-09T05:18:05.539Z,99704.57
2019-05-09T05:20:38.006Z,99698.83
2019-05-09T05:23:18.151Z,99695.98
2019-05-09T05:25:52.825Z,99691.42
2019-05-09T05:28:24.676Z,99690.44
2019-05-09T05:30:58.181Z,99693.24
2019-05-09T05:33:45.678Z,99687.62
2019-05-09T05:36:18.147Z,99690.22
2019-05-09T05:38:50.219Z,99683.98
2019-05-09T05:41:22.252Z,99684.80
2019-05-09T05:43:54.136Z,99685.66
2019-05-09T05:46:37.794Z,99685.22
2019-05-09T05:49:08.795Z,99688.34
2019-05-09T05:51:49.797Z,99685.16
2019-05-09T05:54:22.494Z,99690.34
2019-05-09T05:56:54.315Z,99685.68
2019-05-09T05:59:28.648Z,99681.75
2019-05-09T06:01:59.760Z,99674.52
2019-05-09T06:04:31.786Z,99679.09
2019-05-09T06:07:03.561Z,99670.56
2019-05-09T06:09:37.903Z,99676.89
2019-05-09T06:12:09.575Z,99666.06
2019-05-09T06:14:41.672Z,99664.97
2019-05-09T06:17:13.465Z,99666.09
2019-05-09T06:19:48.664Z,99656.02
2019-05-09T06:22:20.439Z,99650.27
2019-05-09T06:24:52.461Z,99661.88
2019-05-09T06:27:24.493Z,99659.25
2019-05-09T06:29:58.234Z,99658.39
2019-05-09T06:32:30.302Z,99658.47
2019-05-09T06:35:02.388Z,99661.30
2019-05-09T06:37:35.141Z,99656.72
2019-05-09T06:40:08.105Z,99650.66
2019-05-09T06:42:40.505Z,99654.70
2019-05-09T06:45:42.416Z,99650.38
2019-05-09T06:48:14.973Z,99645.64
2019-05-09T06:50:48.340Z,99645.15
2019-05-09T06:53:20.315Z,99646.87
2019-05-09T06:55:52.412Z,99639.75
2019-05-09T06:58:34.283Z,99641.52
2019-05-09T07:01:23.366Z,99634.35
2019-05-09T07:03:59.963Z,99639.36
2019-05-09T07:06:38.961Z,99637.91
2019-05-09T07:09:17.887Z,99626.81
2019-05-09T07:11:49.817Z,99634.78
2019-05-09T07:14:37.962Z,99634.75
2019-05-09T07:17:08.253Z,99621.62
2019-05-09T07:19:43.818Z,99621.75
2019-05-09T07:22:39.533Z,99628.66
2019-05-09T07:25:18.638Z,99623.69
2019-05-09T07:27:50.814Z,99623.57
2019-05-09T07:30:52.600Z,99624.39
2019-05-09T07:33:34.370Z,99622.25
2019-05-09T07:36:08.475Z,99631.10
2019-05-09T07:38:39.923Z,99617.95
2019-05-09T07:41:11.957Z,99617.88
2019-05-09T07:43:43.888Z,99608.14
2019-05-09T07:46:28.982Z,99611.73
2019-05-09T07:49:03.885Z,99616.24
2019-05-09T07:51:37.312Z,99616.69
2019-05-09T07:54:21.337Z,99610.03
2019-05-09T07:56:43.302Z,99606.27
2019-05-09T07:59:17.964Z,99609.27
2019-05-09T08:01:49.204Z,99610.99
2019-05-09T08:04:21.800Z,99594.93
2019-05-09T08:06:53.809Z,99594.69
2019-05-09T08:09:28.153Z,99601.56
2019-05-09T08:11:59.733Z,99588.15
2019-05-09T08:14:32.457Z,99582.02
2019-05-09T08:17:04.272Z,99587.00
2019-05-09T08:19:38.007Z,99587.67
2019-05-09T08:22:11.286Z,99592.02
2019-05-09T08:24:44.387Z,99587.86
2019-05-09T08:27:17.517Z,99584.51
2019-05-09T08:29:49.815Z,99579.91
2019-05-09T08:32:21.915Z,99567.42
2019-05-09T08:34:54.143Z,99564.02
2019-05-09T08:37:28.333Z,99567.20
2019-05-09T08:39:59.879Z,99566.64
2019-05-09T08:42:32.103Z,99564.20
2019-05-09T08:45:04.217Z,99568.77
2019-05-09T08:47:38.050Z,99561.64
2019-05-09T08:50:17.832Z,99556.92
2019-05-09T08:52:49.716Z,99572.16
2019-05-09T08:55:21.946Z,99557.39
2019-05-09T08:57:53.820Z,99564.27
2019-05-09T09:00:29.150Z,99552.57
2019-05-09T09:03:01.103Z,99556.58
2019-05-09T09:05:33.248Z,99554.50
2019-05-09T09:08:08.338Z,99553.31
2019-05-09T09:10:40.482Z,99553.56
2019-05-09T09:13:12.637Z,99548.16
2019-05-09T09:16:05.368Z,99548.16
2019-05-09T09:18:19.926Z,99544.81
2019-05-09T09:20:53.931Z,99537.28
2019-05-09T09:23:42.377Z,99538.92
2019-05-09T09:25:59.811Z,99539.83
2019-05-09T09:28:31.912Z,99527.92
2019-05-09T09:31:04.685Z,99523.59
2019-05-09T09:33:37.657Z,99532.61
2019-05-09T09:36:10.724Z,99532.27
2019-05-09T09:38:42.806Z,99533.64
2019-05-09T09:41:14.958Z,99521.61
2019-05-09T09:43:47.676Z,99518.39
2019-05-09T09:46:20.277Z,99532.56
2019-05-09T09:48:52.118Z,99520.63
2019-05-09T09:51:24.201Z,99520.16
2019-05-09T09:53:58.338Z,99513.93
2019-05-09T09:56:29.843Z,99520.01
2019-05-09T09:59:12.517Z,99520.53
2019-05-09T10:01:47.723Z,99517.38
2019-05-09T10:04:23.826Z,99516.55
2019-05-09T10:06:53.254Z,99507.92
2019-05-09T10:09:25.437Z,99504.74
2019-05-09T10:12:00.584Z,99510.36
2019-05-09T10:14:34.688Z,99511.20
2019-05-09T10:17:31.581Z,99505.91
2019-05-09T10:20:29.136Z,99513.58
2019-05-09T10:23:11.124Z,99500.64
2019-05-09T10:25:35.107Z,99505.17
2019-05-09T10:28:08.665Z,99505.77
2019-05-09T10:30:40.571Z,99500.64
2019-05-09T10:33:12.690Z,99492.05
2019-05-09T10:35:44.546Z,99485.80
2019-05-09T10:38:18.445Z,99485.53
2019-05-09T10:40:53.203Z,99484.78
2019-05-09T10:43:38.004Z,99496.41
2019-05-09T10:46:33.637Z,99491.52
2019-05-09T10:49:03.503Z,99483.05
2019-05-09T10:51:35.422Z,99488.15
2019-05-09T10:54:08.104Z,99481.86
2019-05-09T10:56:40.239Z,99472.19
2019-05-09T10:59:12.146Z,99489.01
2019-05-09T11:01:43.942Z,99487.08
2019-05-09T11:04:17.977Z,99492.38
2019-05-09T11:06:49.626Z,99486.95
2019-05-09T11:09:21.592Z,99477.71
2019-05-09T11:11:53.556Z,99475.34
2019-05-09T11:14:33.538Z,99468.63
2019-05-09T11:17:07.871Z,99469.16
2019-05-09T11:19:33.132Z,99449.49
2019-05-09T11:22:07.815Z,99452.56
2019-05-09T11:24:46.148Z,99451.39
2019-05-09T11:27:12.490Z,99442.64
2019-05-09T11:29:46.410Z,99439.56
2019-05-09T11:32:18.082Z,99452.09
2019-05-09T11:34:50.237Z,99450.58
2019-05-09T11:37:22.314Z,99445.48
2019-05-09T11:39:54.570Z,99445.16
2019-05-09T11:42:28.536Z,99447.48
2019-05-09T11:45:00.446Z,99440.47
2019-05-09T11:47:41.516Z,99440.59
2019-05-09T11:50:08.946Z,99443.31
2019-05-09T11:52:41.346Z,99442.00
2019-05-09T11:55:28.822Z,99421.06
2019-05-09T11:57:48.540Z,99429.84
2019-05-09T12:00:21.925Z,99432.81
2019-05-09T12:02:53.775Z,99429.34
2019-05-09T12:05:28.567Z,99431.88
2019-05-09T12:07:59.549Z,99426.33
2019-05-09T12:10:31.543Z,99423.80
2019-05-09T12:13:03.440Z,99427.36
2019-05-09T12:15:35.410Z,99427.73
2019-05-09T12:18:10.891Z,99420.14
2019-05-09T12:20:41.103Z,99417.89
2019-05-09T12:23:12.967Z,99414.06
2019-05-09T12:25:44.961Z,99420.25
2019-05-09T12:28:18.955Z,99418.47
2019-05-09T12:30:50.628Z,99428.70
2019-05-09T12:33:22.419Z,99421.23
2019-05-09T12:35:54.863Z,99423.54
2019-05-09T12:38:27.730Z,99420.02
2019-05-09T12:41:00.544Z,99417.83
2019-05-09T12:43:32.837Z,99418.45
2019-05-09T12:46:04.712Z,99397.50
2019-05-09T12:48:36.510Z,99406.94
2019-05-09T12:51:08.695Z,99406.55
2019-05-09T12:53:40.528Z,99418.77
2019-05-09T12:56:12.299Z,99418.18
2019-05-09T12:58:44.114Z,99411.05
2019-05-09T13:01:18.012Z,99417.84
2019-05-09T13:03:49.654Z,99409.05
2019-05-09T13:06:22.119Z,99416.14
2019-05-09T13:08:53.917Z,99411.59
2019-05-09T13:11:27.906Z,99418.97
2019-05-09T13:13:59.436Z,99420.20
2019-05-09T13:16:52.387Z,99425.83
2019-05-09T13:19:21.178Z,99424.85
2019-05-09T13:21:53.456Z,99429.66
2019-05-09T13:24:25.272Z,99424.14
2019-05-09T13:26:58.534Z,99430.91
2019-05-09T13:29:30.398Z,99428.27
2019-05-09T13:32:02.554Z,99425.02
2019-05-09T13:34:34.321Z,99427.34
2019-05-09T13:37:09.067Z,99424.80
2019-05-09T13:39:41.173Z,99428.47
2019-05-09T13:42:13.277Z,99434.59
2019-05-09T13:44:47.428Z,99425.33
2019-05-09T13:47:18.726Z,99427.34
2019-05-09T13:49:50.551Z,99424.86
2019-05-09T13:52:22.700Z,99421.49
2019-05-09T13:54:54.485Z,99426.19
2019-05-09T13:57:27.747Z,99427.69
2019-05-09T13:59:59.996Z,99428.61
2019-05-09T14:02:31.949Z,99426.78
2019-05-09T14:05:03.778Z,99423.31
2019-05-09T14:07:37.689Z,99422.83
2019-05-09T14:10:10.385Z,99423.31
2019-05-09T14:12:42.677Z,99420.59
2019-05-09T14:15:14.489Z,99424.57
2019-05-09T14:17:53.115Z,99423.08
2019-05-09T14:20:19.859Z,99423.75
2019-05-09T14:22:52.094Z,99425.89
2019-05-09T14:25:25.233Z,99429.69
2019-05-09T14:27:57.086Z,99427.82
2019-05-09T14:30:28.881Z,99430.82
2019-05-09T14:33:00.845Z,99428.20
2019-05-09T14:35:32.639Z,99423.80
2019-05-09T14:38:05.079Z,99419.48
2019-05-09T14:40:37.259Z,99424.77
2019-05-09T14:43:11.779Z,99435.50
2019-05-09T14:45:43.608Z,99434.48
2019-05-09T14:48:15.687Z,99445.96
2019-05-09T14:50:49.415Z,99433.23
2019-05-09T14:53:21.447Z,99439.85
2019-05-09T14:55:53.232Z,99435.90
2019-05-09T14:58:25.279Z,99437.57
2019-05-09T15:01:00.668Z,99435.46
2019-05-09T15:03:30.952Z,99423.31
2019-05-09T15:06:02.768Z,99421.06
2019-05-09T15:08:34.888Z,99419.86
2019-05-09T15:11:09.767Z,99421.09
2019-05-09T15:13:40.351Z,99411.51
2019-05-09T15:16:12.179Z,99408.86
2019-05-09T15:18:44.168Z,99404.99
2019-05-09T15:21:16.645Z,99405.84
2019-05-09T15:23:49.892Z,99405.84
2019-05-09T15:26:21.837Z,99405.56
2019-05-09T15:28:53.785Z,99403.55
2019-05-09T15:31:28.296Z,99403.34
2019-05-09T15:33:59.187Z,99412.24
2019-05-09T15:36:30.985Z,99408.23
2019-05-09T15:39:03.490Z,99414.20
2019-05-09T15:41:35.366Z,99417.28
2019-05-09T15:44:08.234Z,99411.95
2019-05-09T15:46:45.874Z,99420.66
2019-05-09T15:49:18.389Z,99418.91
2019-05-09T15:51:50.274Z,99416.98
2019-05-09T15:54:22.328Z,99413.16
2019-05-09T15:56:54.182Z,99420.70
2019-05-09T15:59:28.053Z,99414.52
2019-05-09T16:01:59.791Z,99417.80
2019-05-09T16:04:31.910Z,99421.91
2019-05-09T16:07:03.863Z,99424.77
2019-05-09T16:09:37.807Z,99421.88
2019-05-09T16:12:09.404Z,99417.16
2019-05-09T16:14:41.432Z,99418.45
2019-05-09T16:17:13.271Z,99429.02
2019-05-09T16:19:45.208Z,99428.26
2019-05-09T16:22:18.946Z,99423.81
2019-05-09T16:24:51.091Z,99420.88
2019-05-09T16:27:22.943Z,99422.97
2019-05-09T16:29:54.837Z,99422.58
2019-05-09T16:32:26.738Z,99429.41
2019-05-09T16:34:58.560Z,99429.80
2019-05-09T16:37:49.587Z,99440.52
2019-05-09T16:40:04.239Z,99444.83
2019-05-09T16:42:37.983Z,99449.33
2019-05-09T16:45:11.850Z,99444.33
2019-05-09T16:47:43.663Z,99446.56
2019-05-09T16:50:17.855Z,99443.28
2019-05-09T16:52:49.955Z,99448.71
2019-05-09T16:55:33.235Z,99442.28
2019-05-09T16:58:05.042Z,99450.20
2019-05-09T17:00:47.880Z,99447.98
2019-05-09T17:03:21.205Z,99444.06
2019-05-09T17:05:53.592Z,99435.67
2019-05-09T17:08:28.039Z,99440.89
2019-05-09T17:10:59.629Z,99426.18
2019-05-09T17:13:31.884Z,99440.48
2019-05-09T17:16:04.148Z,99442.19
2019-05-09T17:18:38.180Z,99440.32
2019-05-09T17:21:33.021Z,99442.46
2019-05-09T17:24:08.182Z,99444.19
2019-05-09T17:26:40.031Z,99443.73
2019-05-09T17:29:11.981Z,99445.69
2019-05-09T17:31:44.464Z,99445.75
2019-05-09T17:34:17.943Z,99439.94
2019-05-09T17:36:50.176Z,99443.41
2019-05-09T17:39:22.016Z,99446.89
2019-05-09T17:41:54.069Z,99448.91
2019-05-09T17:44:28.120Z,99449.95
2019-05-09T17:46:59.487Z,99450.22
2019-05-09T17:49:31.331Z,99445.03
2019-05-09T17:52:03.416Z,99449.73
2019-05-09T17:54:35.272Z,99447.09
2019-05-09T17:57:08.963Z,99441.04
2019-05-09T17:59:40.858Z,99443.35
2019-05-09T18:02:12.869Z,99445.69
2019-05-09T18:04:44.753Z,99439.94
2019-05-09T18:07:17.982Z,99442.50
2019-05-09T18:09:51.271Z,99441.54
2019-05-09T18:12:23.644Z,99442.86
2019-05-09T18:14:55.466Z,99438.67
2019-05-09T18:17:27.741Z,99444.86
2019-05-09T18:19:59.630Z,99441.12
2019-05-09T18:22:31.593Z,99441.27
2019-05-09T18:25:03.453Z,99438.13
2019-05-09T18:27:37.763Z,99436.04
2019-05-09T18:30:10.683Z,99436.63
2019-05-09T18:32:57.745Z,99431.13
2019-05-09T18:35:29.714Z,99438.48
2019-05-09T18:38:01.818Z,99428.57
2019-05-09T18:40:34.824Z,99433.56
2019-05-09T18:43:07.672Z,99435.98
2019-05-09T18:45:42.886Z,99435.84
2019-05-09T18:48:14.717Z,99436.42
2019-05-09T18:50:49.855Z,99443.02
2019-05-09T18:53:21.876Z,99444.17
2019-05-09T18:55:53.829Z,99442.44
2019-05-09T18:58:26.216Z,99443.76
2019-05-09T19:00:58.722Z,99444.61
2019-05-09T19:03:31.459Z,99441.61
2019-05-09T19:06:03.593Z,99438.98
2019-05-09T19:08:36.384Z,99434.70
2019-05-09T19:11:08.428Z,99436.97
2019-05-09T19:13:42.406Z,99440.23
2019-05-09T19:16:31.215Z,99439.88
2019-05-09T19:19:22.305Z,99436.96
2019-05-09T19:22:04.689Z,99434.33
2019-05-09T19:24:34.031Z,99438.50
2019-05-09T19:27:05.944Z,99440.15
2019-05-09T19:29:38.065Z,99440.91
2019-05-09T19:32:10.126Z,99444.55
2019-05-09T19:34:42.003Z,99438.09
2019-05-09T19:37:13.973Z,99439.73
2019-05-09T19:39:46.025Z,99432.19
2019-05-09T19:42:19.130Z,99433.14
2019-05-09T19:44:51.316Z,99437.09
2019-05-09T19:47:23.348Z,99441.48
2019-05-09T19:49:55.319Z,99438.55
2019-05-09T19:52:37.931Z,99443.82
2019-05-09T19:55:01.117Z,99442.86
2019-05-09T19:57:34.314Z,99439.73
2019-05-09T20:00:06.794Z,99440.36
2019-05-09T20:02:41.193Z,99440.86
2019-05-09T20:05:14.033Z,99439.45
2019-05-09T20:07:45.933Z,99437.80
2019-05-09T20:10:35.897Z,99428.98
2019-05-09T20:13:18.942Z,99435.23
2019-05-09T20:15:51.363Z,99437.65
2019-05-09T20:18:23.214Z,99435.02
2019-05-09T20:20:57.430Z,99432.88
2019-05-09T20:23:28.983Z,99436.96
2019-05-09T20:26:02.428Z,99435.91
2019-05-09T20:28:34.733Z,99435.84
2019-05-09T20:31:07.546Z,99436.67
2019-05-09T20:33:39.481Z,99432.85
2019-05-09T20:36:11.594Z,99436.67
2019-05-09T20:38:43.976Z,99434.03
2019-05-09T20:41:16.522Z,99433.08
2019-05-09T20:43:48.764Z,99436.31
2019-05-09T20:46:21.222Z,99433.80
2019-05-09T20:48:53.476Z,99435.98
2019-05-09T20:51:27.245Z,99432.16
2019-05-09T20:53:59.425Z,99430.71
2019-05-09T20:56:31.783Z,99427.84
2019-05-09T20:59:06.454Z,99425.21
2019-05-09T21:01:39.118Z,99432.36
2019-05-09T21:04:11.207Z,99432.56
2019-05-09T21:06:43.362Z,99435.33
2019-05-09T21:09:18.504Z,99427.78
2019-05-09T21:11:51.088Z,99432.96
2019-05-09T21:14:24.772Z,99432.62
2019-05-09T21:16:57.226Z,99430.03
2019-05-09T21:19:29.281Z,99430.13
2019-05-09T21:22:01.575Z,99434.41
2019-05-09T21:24:33.867Z,99429.77
2019-05-09T21:27:06.171Z,99430.52
2019-05-09T21:29:38.321Z,99430.89
2019-05-09T21:32:10.747Z,99431.02
2019-05-09T21:34:42.625Z,99434.28
2019-05-09T21:37:14.673Z,99437.11
2019-05-09T21:39:46.642Z,99438.56
2019-05-09T21:42:18.626Z,99445.15
2019-05-09T21:44:50.470Z,99439.05
2019-05-09T21:47:22.771Z,99443.14
2019-05-09T21:49:54.641Z,99443.27
2019-05-09T21:52:26.692Z,99439.58
2019-05-09T21:54:58.715Z,99440.50
2019-05-09T21:57:30.945Z,99441.75
2019-05-09T22:00:02.994Z,99434.55
2019-05-09T22:02:36.547Z,99434.55
2019-05-09T22:05:09.074Z,99432.86
2019-05-09T22:07:41.036Z,99437.80
2019-05-09T22:10:13.381Z,99438.13
2019-05-09T22:12:45.214Z,99439.25
2019-05-09T22:15:17.135Z,99437.44
2019-05-09T22:17:49.054Z,99435.56
2019-05-09T22:20:21.561Z,99438.45
2019-05-09T22:22:53.706Z,99435.92
2019-05-09T22:25:25.740Z,99435.20
2019-05-09T22:27:57.596Z,99431.38
2019-05-09T22:30:29.586Z,99437.14
2019-05-09T22:33:01.510Z,99433.81
2019-05-09T22:35:34.613Z,99432.99
2019-05-09T22:38:06.688Z,99435.89
2019-05-09T22:40:38.505Z,99441.65
2019-05-09T22:43:10.621Z,99432.20
2019-05-09T22:45:42.557Z,99438.78
2019-05-09T22:48:14.704Z,99432.70
2019-05-09T22:50:46.501Z,99439.91
2019-05-09T22:53:18.429Z,99438.91
2019-05-09T22:55:50.245Z,99436.21
2019-05-09T22:58:22.280Z,99436.67
2019-05-09T23:00:54.044Z,99434.66
2019-05-09T23:03:26.088Z,99434.53
2019-05-09T23:05:58.177Z,99441.48
2019-05-09T23:08:30.153Z,99434.46
2019-05-09T23:11:02.031Z,99437.48
2019-05-09T23:13:52.537Z,99435.22
2019-05-09T23:16:26.434Z,99440.12
2019-05-09T23:18:58.458Z,99437.74
2019-05-09T23:21:30.681Z,99444.25
2019-05-09T23:24:05.721Z,99442.24
2019-05-09T23:26:37.632Z,99438.63
2019-05-09T23:29:09.530Z,99442.11
2019-05-09T23:31:52.530Z,99439.94
2019-05-09T23:34:24.930Z,99435.39
2019-05-09T23:36:56.715Z,99437.09
2019-05-09T23:39:31.579Z,99436.94
2019-05-09T23:42:03.350Z,99436.94
2019-05-09T23:44:35.437Z,99435.14
2019-05-09T23:47:07.389Z,99438.85
2019-05-09T23:49:39.561Z,99436.22
2019-05-09T23:52:11.629Z,99431.83
2019-05-09T23:55:01.230Z,99428.00
2019-05-09T23:57:50.786Z,99428.70
